CZ-0086 weather

Kunětice
Pardubice Region, Czechia

Public forecast

Using degrees Celsius for public forecast. Weather courtesy of forecast.io.

METAR (pilot weather report)

Closest report is Pardubice Airport, 4.4 nm (8.1 km) SW. Retrieved 2019/07/22 09:00 UTC (30 minutes ago):

LKPD 220900Z VRB03KT 9999 FEW037 BKN220 25/15 Q1024 NOSIG

TAF (pilot weather forecast)

Closest forecast is Pardubice Airport, 4.4 nm (8.1 km) SW. Retrieved 2019/07/22 06:00 UTC (3 hours ago):

TAF LKPD 220500Z 2206/2306 VRB02KT CAVOK BECMG 2208/2210 SCT025 BECMG 2210/2212 27006KT BECMG 2213/2215 CAVOK BECMG 2220/2222 VRB02KT